createdAt,value
2022-08-28T00:00:31.494Z,1010.85
2022-08-28T00:01:31.029Z,1010.87
2022-08-28T00:02:30.983Z,1010.89
2022-08-28T00:03:30.975Z,1010.88
2022-08-28T00:04:31.041Z,1010.83
2022-08-28T00:05:30.974Z,1010.91
2022-08-28T00:06:30.912Z,1010.91
2022-08-28T00:07:30.894Z,1010.92
2022-08-28T00:08:30.939Z,1010.92
2022-08-28T00:09:30.914Z,1010.94
2022-08-28T00:10:30.960Z,1010.97
2022-08-28T00:11:30.863Z,1010.95
2022-08-28T00:12:32.076Z,1010.94
2022-08-28T00:13:30.899Z,1010.94
2022-08-28T00:14:30.850Z,1010.90
2022-08-28T00:15:30.804Z,1010.93
2022-08-28T00:16:30.836Z,1010.94
2022-08-28T00:17:30.760Z,1010.92
2022-08-28T00:18:30.741Z,1010.94
2022-08-28T00:19:31.530Z,1010.92
2022-08-28T00:20:30.789Z,1010.94
2022-08-28T00:21:30.758Z,1010.95
2022-08-28T00:22:31.632Z,1010.95
2022-08-28T00:23:38.794Z,1010.94
2022-08-28T00:24:31.689Z,1010.95
2022-08-28T00:25:31.197Z,1010.93
2022-08-28T00:26:30.731Z,1010.94
2022-08-28T00:27:30.808Z,1010.99
2022-08-28T00:28:30.653Z,1010.96
2022-08-28T00:29:30.607Z,1010.99
2022-08-28T00:30:30.625Z,1010.96
2022-08-28T00:31:30.671Z,1010.94
2022-08-28T00:32:30.599Z,1010.99
2022-08-28T00:33:30.604Z,1010.95
2022-08-28T00:34:33.099Z,1010.94
2022-08-28T00:35:30.843Z,1010.99
2022-08-28T00:36:30.625Z,1010.97
2022-08-28T00:37:30.823Z,1010.98
2022-08-28T00:38:30.724Z,1010.95
2022-08-28T00:39:30.474Z,1010.93
2022-08-28T00:40:33.002Z,1010.96
2022-08-28T00:41:30.493Z,1010.95
2022-08-28T00:42:30.442Z,1010.97
2022-08-28T00:43:30.515Z,1010.98
2022-08-28T00:44:30.417Z,1010.99
2022-08-28T00:45:30.446Z,1011.00
2022-08-28T00:46:30.472Z,1010.98
2022-08-28T00:47:30.401Z,1010.96
2022-08-28T00:48:30.585Z,1010.98
2022-08-28T00:49:30.374Z,1010.97
2022-08-28T00:50:30.492Z,1010.98
2022-08-28T00:51:31.407Z,1010.93
2022-08-28T00:52:30.380Z,1010.98
2022-08-28T00:53:33.134Z,1010.91
2022-08-28T00:54:30.436Z,1010.97
2022-08-28T00:55:30.277Z,1010.97
2022-08-28T00:56:30.264Z,1010.98
2022-08-28T00:57:30.258Z,1010.96
2022-08-28T00:58:30.288Z,1010.93
2022-08-28T00:59:30.348Z,1010.97
2022-08-28T01:00:30.218Z,1011.01
2022-08-28T01:01:30.261Z,1011.02
2022-08-28T01:02:30.260Z,1011.03
2022-08-28T01:03:30.197Z,1011.01
2022-08-28T01:04:30.212Z,1011.02
2022-08-28T01:05:30.151Z,1010.98
2022-08-28T01:06:30.192Z,1011.02
2022-08-28T01:07:30.159Z,1011.01
2022-08-28T01:08:30.344Z,1011.02
2022-08-28T01:09:30.215Z,1010.97
2022-08-28T01:10:30.128Z,1011.01
2022-08-28T01:11:30.143Z,1010.97
2022-08-28T01:12:30.143Z,1010.97
2022-08-28T01:13:30.090Z,1010.96
2022-08-28T01:14:30.043Z,1010.95
2022-08-28T01:15:30.138Z,1010.96
2022-08-28T01:16:32.968Z,1011.01
2022-08-28T01:17:30.131Z,1010.97
2022-08-28T01:18:30.001Z,1011.04
2022-08-28T01:19:30.071Z,1011.02
2022-08-28T01:20:29.985Z,1011.00
2022-08-28T01:21:30.083Z,1011.00
2022-08-28T01:22:30.947Z,1011.04
2022-08-28T01:23:29.915Z,1011.01
2022-08-28T01:24:29.904Z,1011.01
2022-08-28T01:25:29.903Z,1010.95
2022-08-28T01:26:29.946Z,1010.99
2022-08-28T01:27:30.004Z,1010.98
2022-08-28T01:28:29.892Z,1010.99
2022-08-28T01:29:30.832Z,1010.97
2022-08-28T01:30:29.885Z,1011.00
2022-08-28T01:31:29.903Z,1011.01
2022-08-28T01:32:29.827Z,1011.00
2022-08-28T01:33:29.822Z,1010.99
2022-08-28T01:34:29.839Z,1010.99
2022-08-28T01:35:29.778Z,1011.06
2022-08-28T01:36:29.819Z,1011.05
2022-08-28T01:37:29.766Z,1011.05
2022-08-28T01:38:29.851Z,1011.08
2022-08-28T01:39:29.887Z,1011.02
2022-08-28T01:40:29.953Z,1011.05
2022-08-28T01:41:29.703Z,1011.05
2022-08-28T01:42:30.606Z,1011.08
2022-08-28T01:43:29.658Z,1011.07
2022-08-28T01:44:29.711Z,1011.05
2022-08-28T01:45:29.650Z,1011.04
2022-08-28T01:46:29.705Z,1011.05
2022-08-28T01:47:29.677Z,1011.04
2022-08-28T01:48:29.598Z,1011.06
2022-08-28T01:49:29.609Z,1011.06
2022-08-28T01:50:29.603Z,1011.06
2022-08-28T01:51:29.574Z,1011.10
2022-08-28T01:52:30.691Z,1011.07
2022-08-28T01:53:32.621Z,1011.07
2022-08-28T01:54:29.722Z,1011.07
2022-08-28T01:55:29.530Z,1011.07
2022-08-28T01:56:29.543Z,1011.09
2022-08-28T01:57:29.492Z,1011.08
2022-08-28T01:58:30.230Z,1011.07
2022-08-28T01:59:29.473Z,1011.07
2022-08-28T02:00:29.471Z,1011.05
2022-08-28T02:01:29.500Z,1011.07
2022-08-28T02:02:29.436Z,1011.09
2022-08-28T02:03:29.411Z,1011.08
2022-08-28T02:04:31.784Z,1011.05
2022-08-28T02:05:29.515Z,1011.05
2022-08-28T02:06:30.355Z,1011.03
2022-08-28T02:07:29.547Z,1011.09
2022-08-28T02:08:29.387Z,1011.07
2022-08-28T02:09:29.318Z,1011.05
2022-08-28T02:10:29.314Z,1011.04
2022-08-28T02:11:29.296Z,1011.03
2022-08-28T02:12:29.297Z,1011.06
2022-08-28T02:13:29.671Z,1011.09
2022-08-28T02:14:29.256Z,1011.10
2022-08-28T02:15:29.315Z,1011.07
2022-08-28T02:16:29.228Z,1011.11
2022-08-28T02:17:29.439Z,1011.10
2022-08-28T02:18:29.788Z,1011.11
2022-08-28T02:19:29.553Z,1011.14
2022-08-28T02:20:30.034Z,1011.19
2022-08-28T02:21:29.180Z,1011.16
2022-08-28T02:22:29.175Z,1011.14
2022-08-28T02:23:29.138Z,1011.15
2022-08-28T02:24:29.199Z,1011.10
2022-08-28T02:25:29.116Z,1011.11
2022-08-28T02:26:29.106Z,1011.08
2022-08-28T02:27:29.110Z,1011.14
2022-08-28T02:28:29.182Z,1011.10
2022-08-28T02:29:29.063Z,1011.09
2022-08-28T02:30:30.103Z,1011.10
2022-08-28T02:31:29.670Z,1011.09
2022-08-28T02:32:29.060Z,1011.12
2022-08-28T02:33:29.010Z,1011.08
2022-08-28T02:34:29.045Z,1011.15
2022-08-28T02:35:29.022Z,1011.09
2022-08-28T02:36:28.983Z,1011.07
2022-08-28T02:37:29.036Z,1011.07
2022-08-28T02:38:28.955Z,1011.02
2022-08-28T02:39:28.964Z,1011.03
2022-08-28T02:40:28.958Z,1011.04
2022-08-28T02:41:29.002Z,1010.97
2022-08-28T02:42:28.948Z,1011.01
2022-08-28T02:43:29.152Z,1010.95
2022-08-28T02:44:29.777Z,1010.99
2022-08-28T02:45:29.557Z,1010.94
2022-08-28T02:46:28.910Z,1011.03
2022-08-28T02:47:28.903Z,1011.03
2022-08-28T02:48:28.832Z,1010.99
2022-08-28T02:49:31.288Z,1011.00
2022-08-28T02:50:29.783Z,1011.02
2022-08-28T02:51:28.801Z,1011.09
2022-08-28T02:52:28.779Z,1011.06
2022-08-28T02:53:28.770Z,1011.12
2022-08-28T02:54:28.732Z,1011.06
2022-08-28T02:55:33.598Z,1011.07
2022-08-28T02:56:29.731Z,1011.11
2022-08-28T02:57:28.716Z,1011.09
2022-08-28T02:58:28.698Z,1011.07
2022-08-28T02:59:28.699Z,1011.07
2022-08-28T03:00:28.680Z,1011.05
2022-08-28T03:01:28.717Z,1011.06
2022-08-28T03:02:28.698Z,1011.08
2022-08-28T03:03:28.685Z,1011.09
2022-08-28T03:04:28.608Z,1011.07
2022-08-28T03:05:28.595Z,1011.08
2022-08-28T03:06:28.583Z,1011.08
2022-08-28T03:07:28.565Z,1011.08
2022-08-28T03:08:28.588Z,1011.01
2022-08-28T03:09:28.569Z,1011.05
2022-08-28T03:10:28.603Z,1011.04
2022-08-28T03:11:29.750Z,1011.08
2022-08-28T03:12:28.499Z,1011.08
2022-08-28T03:13:28.551Z,1011.03
2022-08-28T03:14:28.523Z,1011.06
2022-08-28T03:15:28.492Z,1011.07
2022-08-28T03:16:28.528Z,1011.11
2022-08-28T03:17:28.462Z,1011.12
2022-08-28T03:18:28.471Z,1011.10
2022-08-28T03:19:28.544Z,1011.12
2022-08-28T03:20:28.492Z,1011.12
2022-08-28T03:21:28.391Z,1011.14
2022-08-28T03:22:28.401Z,1011.17
2022-08-28T03:23:28.879Z,1011.14
2022-08-28T03:24:28.405Z,1011.19
2022-08-28T03:25:28.351Z,1011.17
2022-08-28T03:26:28.338Z,1011.19
2022-08-28T03:27:29.053Z,1011.18
2022-08-28T03:28:28.290Z,1011.14
2022-08-28T03:29:28.324Z,1011.16
2022-08-28T03:30:28.318Z,1011.18
2022-08-28T03:31:28.255Z,1011.19
2022-08-28T03:32:29.341Z,1011.18
2022-08-28T03:33:28.383Z,1011.19
2022-08-28T03:34:28.294Z,1011.17
2022-08-28T03:35:29.488Z,1011.19
2022-08-28T03:36:28.227Z,1011.21
2022-08-28T03:37:28.220Z,1011.20
2022-08-28T03:38:28.208Z,1011.19
2022-08-28T03:39:28.177Z,1011.22
2022-08-28T03:40:28.258Z,1011.19
2022-08-28T03:41:28.129Z,1011.19
2022-08-28T03:42:28.117Z,1011.22
2022-08-28T03:43:28.168Z,1011.24
2022-08-28T03:44:28.179Z,1011.23
2022-08-28T03:45:28.071Z,1011.23
2022-08-28T03:46:29.551Z,1011.28
2022-08-28T03:47:28.089Z,1011.21
2022-08-28T03:48:28.075Z,1011.21
2022-08-28T03:49:28.108Z,1011.26
2022-08-28T03:50:28.484Z,1011.22
2022-08-28T03:51:29.527Z,1011.23
2022-08-28T03:52:27.986Z,1011.27
2022-08-28T03:53:28.029Z,1011.25
2022-08-28T03:54:28.004Z,1011.24
2022-08-28T03:55:28.019Z,1011.27
2022-08-28T03:56:27.930Z,1011.29
2022-08-28T03:57:27.933Z,1011.30
2022-08-28T03:58:27.940Z,1011.32
2022-08-28T03:59:29.794Z,1011.28
2022-08-28T04:00:28.889Z,1011.29
2022-08-28T04:01:28.118Z,1011.30
2022-08-28T04:02:27.911Z,1011.32
2022-08-28T04:03:27.901Z,1011.27
2022-08-28T04:04:27.947Z,1011.32
2022-08-28T04:05:27.846Z,1011.28
2022-08-28T04:06:27.814Z,1011.26
2022-08-28T04:07:27.840Z,1011.33
2022-08-28T04:08:27.782Z,1011.27
2022-08-28T04:09:27.803Z,1011.28
2022-08-28T04:10:27.775Z,1011.31
2022-08-28T04:11:27.736Z,1011.33
2022-08-28T04:12:27.755Z,1011.27
2022-08-28T04:13:27.716Z,1011.32
2022-08-28T04:14:27.715Z,1011.34
2022-08-28T04:15:27.746Z,1011.32
2022-08-28T04:16:27.763Z,1011.35
2022-08-28T04:17:27.656Z,1011.32
2022-08-28T04:18:27.663Z,1011.37
2022-08-28T04:19:27.677Z,1011.40
2022-08-28T04:20:27.655Z,1011.38
2022-08-28T04:21:27.628Z,1011.35
2022-08-28T04:22:27.603Z,1011.38
2022-08-28T04:23:27.579Z,1011.38
2022-08-28T04:24:27.579Z,1011.36
2022-08-28T04:25:27.561Z,1011.35
2022-08-28T04:26:27.580Z,1011.39
2022-08-28T04:27:27.608Z,1011.45
2022-08-28T04:28:27.538Z,1011.43
2022-08-28T04:29:27.511Z,1011.46
2022-08-28T04:30:27.560Z,1011.47
2022-08-28T04:31:32.144Z,1011.47
2022-08-28T04:32:28.548Z,1011.48
2022-08-28T04:33:27.459Z,1011.47
2022-08-28T04:34:27.467Z,1011.45
2022-08-28T04:35:27.431Z,1011.43
2022-08-28T04:36:27.431Z,1011.47
2022-08-28T04:37:27.851Z,1011.45
2022-08-28T04:38:27.410Z,1011.45
2022-08-28T04:39:27.412Z,1011.41
2022-08-28T04:40:27.437Z,1011.45
2022-08-28T04:41:27.499Z,1011.43
2022-08-28T04:42:27.405Z,1011.40
2022-08-28T04:43:27.452Z,1011.41
2022-08-28T04:44:27.452Z,1011.38
2022-08-28T04:45:27.404Z,1011.44
2022-08-28T04:46:31.026Z,1011.42
2022-08-28T04:47:27.363Z,1011.40
2022-08-28T04:48:27.283Z,1011.41
2022-08-28T04:49:27.258Z,1011.43
2022-08-28T04:50:27.268Z,1011.44
2022-08-28T04:51:27.344Z,1011.44
2022-08-28T04:52:27.267Z,1011.47
2022-08-28T04:53:27.438Z,1011.45
2022-08-28T04:54:27.194Z,1011.44
2022-08-28T04:55:53.908Z,1011.43
2022-08-28T04:56:28.236Z,1011.44
2022-08-28T04:57:27.157Z,1011.46
2022-08-28T04:58:27.194Z,1011.43
2022-08-28T04:59:27.127Z,1011.46
2022-08-28T05:00:27.147Z,1011.47
2022-08-28T05:01:27.167Z,1011.51
2022-08-28T05:02:27.253Z,1011.46
2022-08-28T05:03:27.168Z,1011.54
2022-08-28T05:04:27.074Z,1011.56
2022-08-28T05:05:27.167Z,1011.53
2022-08-28T05:06:27.054Z,1011.51
2022-08-28T05:07:27.015Z,1011.52
2022-08-28T05:08:27.027Z,1011.52
2022-08-28T05:09:27.008Z,1011.52
2022-08-28T05:10:26.999Z,1011.51
2022-08-28T05:11:34.395Z,1011.52
2022-08-28T05:12:27.970Z,1011.50
2022-08-28T05:13:26.988Z,1011.50
2022-08-28T05:14:26.979Z,1011.53
2022-08-28T05:15:28.080Z,1011.55
2022-08-28T05:16:27.077Z,1011.52
2022-08-28T05:17:26.989Z,1011.51
2022-08-28T05:18:27.918Z,1011.55
2022-08-28T05:19:26.861Z,1011.57
2022-08-28T05:20:26.849Z,1011.58
2022-08-28T05:21:26.873Z,1011.59
2022-08-28T05:22:26.853Z,1011.60
2022-08-28T05:23:26.922Z,1011.59
2022-08-28T05:24:26.798Z,1011.58
2022-08-28T05:25:26.779Z,1011.58
2022-08-28T05:26:28.298Z,1011.65
2022-08-28T05:27:26.783Z,1011.64
2022-08-28T05:28:26.811Z,1011.58
2022-08-28T05:29:26.763Z,1011.60
2022-08-28T05:30:26.756Z,1011.65
2022-08-28T05:31:26.775Z,1011.63
2022-08-28T05:32:26.760Z,1011.62
2022-08-28T05:33:26.703Z,1011.65
2022-08-28T05:34:26.660Z,1011.63
2022-08-28T05:35:26.694Z,1011.63
2022-08-28T05:36:32.742Z,1011.67
2022-08-28T05:37:27.637Z,1011.67
2022-08-28T05:38:26.667Z,1011.68
2022-08-28T05:39:26.614Z,1011.71
2022-08-28T05:40:26.693Z,1011.68
2022-08-28T05:41:26.614Z,1011.66
2022-08-28T05:42:28.833Z,1011.69
2022-08-28T05:43:26.577Z,1011.73
2022-08-28T05:44:26.548Z,1011.75
2022-08-28T05:45:26.537Z,1011.73
2022-08-28T05:46:26.518Z,1011.77
2022-08-28T05:47:26.509Z,1011.77
2022-08-28T05:48:26.527Z,1011.77
2022-08-28T05:49:26.469Z,1011.78
2022-08-28T05:50:26.456Z,1011.76
2022-08-28T05:51:26.448Z,1011.76
2022-08-28T05:52:26.438Z,1011.79
2022-08-28T05:53:26.430Z,1011.81
2022-08-28T05:54:27.597Z,1011.81
2022-08-28T05:55:26.389Z,1011.83
2022-08-28T05:56:26.380Z,1011.80
2022-08-28T05:57:26.368Z,1011.83
2022-08-28T05:58:26.380Z,1011.82
2022-08-28T05:59:26.397Z,1011.85
2022-08-28T06:00:26.405Z,1011.82
2022-08-28T06:01:26.369Z,1011.83
2022-08-28T06:02:26.311Z,1011.86
2022-08-28T06:03:26.295Z,1011.77
2022-08-28T06:04:26.413Z,1011.79
2022-08-28T06:05:26.271Z,1011.82
2022-08-28T06:06:26.299Z,1011.81
2022-08-28T06:07:26.245Z,1011.82
2022-08-28T06:08:26.243Z,1011.82
2022-08-28T06:09:29.315Z,1011.83
2022-08-28T06:10:26.312Z,1011.79
2022-08-28T06:11:26.225Z,1011.84
2022-08-28T06:12:26.220Z,1011.82
2022-08-28T06:13:26.206Z,1011.81
2022-08-28T06:14:26.144Z,1011.85
2022-08-28T06:15:26.155Z,1011.86
2022-08-28T06:16:26.279Z,1011.89
2022-08-28T06:17:26.151Z,1011.88
2022-08-28T06:18:26.118Z,1011.87
2022-08-28T06:19:26.094Z,1011.86
2022-08-28T06:20:26.116Z,1011.83
2022-08-28T06:21:26.142Z,1011.81
2022-08-28T06:22:26.055Z,1011.87
2022-08-28T06:23:26.027Z,1011.85
2022-08-28T06:24:26.027Z,1011.92
2022-08-28T06:25:26.129Z,1011.91
2022-08-28T06:26:25.997Z,1011.92
2022-08-28T06:27:25.966Z,1011.94
2022-08-28T06:28:26.185Z,1011.99
2022-08-28T06:29:25.974Z,1012.02
2022-08-28T06:30:25.993Z,1012.02
2022-08-28T06:31:28.743Z,1012.03
2022-08-28T06:32:27.270Z,1012.05
2022-08-28T06:33:25.964Z,1012.01
2022-08-28T06:34:25.927Z,1012.05
2022-08-28T06:35:25.887Z,1012.06
2022-08-28T06:36:25.878Z,1012.13
2022-08-28T06:37:25.881Z,1012.06
2022-08-28T06:38:25.911Z,1012.15
2022-08-28T06:39:25.824Z,1012.12
2022-08-28T06:40:25.855Z,1012.13
2022-08-28T06:41:25.874Z,1012.12
2022-08-28T06:42:25.782Z,1012.11
2022-08-28T06:43:25.768Z,1012.12
2022-08-28T06:44:26.707Z,1012.17
2022-08-28T06:45:25.800Z,1012.21
2022-08-28T06:46:25.813Z,1012.20
2022-08-28T06:47:25.777Z,1012.21
2022-08-28T06:48:25.734Z,1012.16
2022-08-28T06:49:25.720Z,1012.22
2022-08-28T06:50:25.733Z,1012.26
2022-08-28T06:51:25.726Z,1012.22
2022-08-28T06:52:25.699Z,1012.35
2022-08-28T06:53:25.632Z,1012.26
2022-08-28T06:54:25.637Z,1012.24
2022-08-28T06:55:25.673Z,1012.27
2022-08-28T06:56:27.139Z,1012.27
2022-08-28T06:57:25.606Z,1012.30
2022-08-28T06:58:25.594Z,1012.19
2022-08-28T06:59:26.187Z,1012.25
2022-08-28T07:00:25.574Z,1012.29
2022-08-28T07:01:25.881Z,1012.37
2022-08-28T07:02:28.323Z,1012.31
2022-08-28T07:03:25.535Z,1012.30
2022-08-28T07:04:25.548Z,1012.27
2022-08-28T07:05:25.489Z,1012.30
2022-08-28T07:06:25.465Z,1012.37
2022-08-28T07:07:32.444Z,1012.34
2022-08-28T07:08:26.485Z,1012.38
2022-08-28T07:09:25.458Z,1012.42
2022-08-28T07:10:27.375Z,1012.40
2022-08-28T07:11:25.963Z,1012.49
2022-08-28T07:12:25.398Z,1012.42
2022-08-28T07:13:25.407Z,1012.45
2022-08-28T07:14:25.884Z,1012.45
2022-08-28T07:15:25.376Z,1012.48
2022-08-28T07:16:25.464Z,1012.45
2022-08-28T07:17:25.352Z,1012.49
2022-08-28T07:18:25.343Z,1012.39
2022-08-28T07:19:25.409Z,1012.48
2022-08-28T07:20:25.295Z,1012.46
2022-08-28T07:21:25.280Z,1012.43
2022-08-28T07:22:25.300Z,1012.44
2022-08-28T07:23:25.386Z,1012.48
2022-08-28T07:24:25.343Z,1012.47
2022-08-28T07:25:25.253Z,1012.51
2022-08-28T07:26:25.245Z,1012.48
2022-08-28T07:27:25.195Z,1012.48
2022-08-28T07:28:25.214Z,1012.48
2022-08-28T07:29:25.193Z,1012.56
2022-08-28T07:30:25.152Z,1012.54
2022-08-28T07:31:25.271Z,1012.57
2022-08-28T07:32:25.124Z,1012.57
2022-08-28T07:33:25.113Z,1012.55
2022-08-28T07:34:26.911Z,1012.56
2022-08-28T07:35:25.263Z,1012.53
2022-08-28T07:36:29.803Z,1012.53
2022-08-28T07:37:26.096Z,1012.56
2022-08-28T07:38:25.067Z,1012.55
2022-08-28T07:39:25.051Z,1012.55
2022-08-28T07:40:25.085Z,1012.58
2022-08-28T07:41:25.121Z,1012.56
2022-08-28T07:42:25.000Z,1012.54
2022-08-28T07:43:25.087Z,1012.61
2022-08-28T07:44:25.016Z,1012.53
2022-08-28T07:45:24.999Z,1012.57
2022-08-28T07:46:25.036Z,1012.60
2022-08-28T07:47:24.943Z,1012.59
2022-08-28T07:48:25.162Z,1012.59
2022-08-28T07:49:24.927Z,1012.58
2022-08-28T07:50:24.904Z,1012.57
2022-08-28T07:51:26.399Z,1012.58
2022-08-28T07:52:25.003Z,1012.56
2022-08-28T07:53:24.994Z,1012.60
2022-08-28T07:54:24.931Z,1012.57
2022-08-28T07:55:24.976Z,1012.56
2022-08-28T07:56:24.871Z,1012.58
2022-08-28T07:57:24.814Z,1012.59
2022-08-28T07:58:25.642Z,1012.60
2022-08-28T07:59:24.803Z,1012.59
2022-08-28T08:00:24.964Z,1012.58
2022-08-28T08:01:25.718Z,1012.50
2022-08-28T08:02:24.815Z,1012.53
2022-08-28T08:03:24.789Z,1012.53
2022-08-28T08:04:24.815Z,1012.51
2022-08-28T08:05:24.716Z,1012.53
2022-08-28T08:06:24.712Z,1012.54
2022-08-28T08:07:24.695Z,1012.46
2022-08-28T08:08:24.678Z,1012.49
2022-08-28T08:09:24.687Z,1012.50
2022-08-28T08:10:24.664Z,1012.51
2022-08-28T08:11:24.640Z,1012.46
2022-08-28T08:12:24.651Z,1012.48
2022-08-28T08:13:24.686Z,1012.51
2022-08-28T08:14:25.583Z,1012.40
2022-08-28T08:15:28.326Z,1012.42
2022-08-28T08:16:25.681Z,1012.53
2022-08-28T08:17:24.590Z,1012.51
2022-08-28T08:18:24.652Z,1012.52
2022-08-28T08:19:24.583Z,1012.49
2022-08-28T08:20:24.520Z,1012.58
2022-08-28T08:21:29.573Z,1012.62
2022-08-28T08:22:25.587Z,1012.54
2022-08-28T08:23:24.499Z,1012.54
2022-08-28T08:24:24.452Z,1012.57
2022-08-28T08:25:24.588Z,1012.57
2022-08-28T08:26:24.456Z,1012.52
2022-08-28T08:27:24.470Z,1012.58
2022-08-28T08:28:24.413Z,1012.56
2022-08-28T08:29:24.422Z,1012.52
2022-08-28T08:30:24.435Z,1012.45
2022-08-28T08:31:24.430Z,1012.55
2022-08-28T08:32:24.538Z,1012.49
2022-08-28T08:33:24.339Z,1012.55
2022-08-28T08:34:24.326Z,1012.54
2022-08-28T08:35:24.344Z,1012.51
2022-08-28T08:36:24.316Z,1012.55
2022-08-28T08:37:24.314Z,1012.56
2022-08-28T08:38:24.547Z,1012.55
2022-08-28T08:39:24.613Z,1012.59
2022-08-28T08:40:24.324Z,1012.58
2022-08-28T08:41:24.238Z,1012.62
2022-08-28T08:42:24.265Z,1012.61
2022-08-28T08:43:24.218Z,1012.60
2022-08-28T08:44:24.363Z,1012.65
2022-08-28T08:45:25.195Z,1012.59
2022-08-28T08:46:24.296Z,1012.57
2022-08-28T08:47:24.220Z,1012.62
2022-08-28T08:48:24.153Z,1012.58
2022-08-28T08:49:25.088Z,1012.59
2022-08-28T08:50:24.133Z,1012.66
2022-08-28T08:51:24.156Z,1012.56
2022-08-28T08:52:24.313Z,1012.56
2022-08-28T08:53:24.256Z,1012.54
2022-08-28T08:54:24.139Z,1012.60
2022-08-28T08:55:24.880Z,1012.55
2022-08-28T08:56:24.067Z,1012.55
2022-08-28T08:57:25.050Z,1012.60
2022-08-28T08:58:24.042Z,1012.49
2022-08-28T08:59:24.031Z,1012.57
2022-08-28T09:00:23.984Z,1012.53
2022-08-28T09:01:24.051Z,1012.50
2022-08-28T09:02:26.377Z,1012.51
2022-08-28T09:03:25.085Z,1012.53
2022-08-28T09:04:23.981Z,1012.55
2022-08-28T09:05:23.934Z,1012.53
2022-08-28T09:06:23.936Z,1012.54
2022-08-28T09:07:23.983Z,1012.54
2022-08-28T09:08:24.653Z,1012.55
2022-08-28T09:09:24.007Z,1012.55
2022-08-28T09:10:23.868Z,1012.58
2022-08-28T09:11:23.986Z,1012.62
2022-08-28T09:12:23.936Z,1012.57
2022-08-28T09:13:24.017Z,1012.64
2022-08-28T09:14:26.864Z,1012.58
2022-08-28T09:15:24.819Z,1012.61
2022-08-28T09:16:23.888Z,1012.58
2022-08-28T09:17:23.827Z,1012.63
2022-08-28T09:18:23.765Z,1012.60
2022-08-28T09:19:23.824Z,1012.56
2022-08-28T09:20:30.240Z,1012.55
2022-08-28T09:21:28.548Z,1012.69
2022-08-28T09:22:23.711Z,1012.62
2022-08-28T09:23:23.686Z,1012.63
2022-08-28T09:24:23.719Z,1012.65
2022-08-28T09:25:23.715Z,1012.60
2022-08-28T09:26:23.668Z,1012.63
2022-08-28T09:27:23.747Z,1012.64
2022-08-28T09:28:23.618Z,1012.59
2022-08-28T09:29:23.792Z,1012.61
2022-08-28T09:30:23.864Z,1012.60
2022-08-28T09:31:23.665Z,1012.59
2022-08-28T09:32:23.642Z,1012.63
2022-08-28T09:33:23.580Z,1012.66
2022-08-28T09:34:23.644Z,1012.57
2022-08-28T09:35:12.137Z,1012.61
2022-08-28T09:36:12.137Z,1012.53
2022-08-28T09:37:13.969Z,1012.54
2022-08-28T09:38:12.153Z,1012.53
2022-08-28T09:39:12.046Z,1012.46
2022-08-28T09:40:12.167Z,1012.55
2022-08-28T09:41:12.039Z,1012.50
2022-08-28T09:42:12.028Z,1012.51
2022-08-28T09:43:11.997Z,1012.54
2022-08-28T09:44:12.108Z,1012.59
2022-08-28T09:45:11.957Z,1012.56
2022-08-28T09:46:12.064Z,1012.47
2022-08-28T09:47:11.959Z,1012.49
2022-08-28T09:48:11.993Z,1012.48
2022-08-28T09:49:11.985Z,1012.51
2022-08-28T09:50:11.938Z,1012.47
2022-08-28T09:51:11.859Z,1012.46
2022-08-28T09:52:11.932Z,1012.51
2022-08-28T09:53:11.897Z,1012.43
2022-08-28T09:54:12.035Z,1012.48
2022-08-28T09:55:11.897Z,1012.51
2022-08-28T09:56:11.825Z,1012.53
2022-08-28T09:57:11.793Z,1012.55
2022-08-28T09:58:12.935Z,1012.52
2022-08-28T09:59:11.828Z,1012.50
2022-08-28T10:00:11.856Z,1012.51
2022-08-28T10:01:12.863Z,1012.57
2022-08-28T10:02:11.867Z,1012.57
2022-08-28T10:03:12.715Z,1012.58
2022-08-28T10:04:11.735Z,1012.64
2022-08-28T10:05:11.672Z,1012.62
2022-08-28T10:06:11.804Z,1012.69
2022-08-28T10:07:11.684Z,1012.60
2022-08-28T10:08:11.979Z,1012.63
2022-08-28T10:09:11.634Z,1012.60
2022-08-28T10:10:11.790Z,1012.61
2022-08-28T10:11:11.612Z,1012.66
2022-08-28T10:12:11.715Z,1012.60
2022-08-28T10:13:11.634Z,1012.60
2022-08-28T10:14:11.605Z,1012.62
2022-08-28T10:15:11.543Z,1012.60
2022-08-28T10:16:11.589Z,1012.68
2022-08-28T10:17:11.538Z,1012.64
2022-08-28T10:18:11.656Z,1012.59
2022-08-28T10:19:11.516Z,1012.63
2022-08-28T10:20:11.496Z,1012.62
2022-08-28T10:21:11.485Z,1012.59
2022-08-28T10:22:12.433Z,1012.58
2022-08-28T10:23:15.663Z,1012.58
2022-08-28T10:24:12.547Z,1012.56
2022-08-28T10:25:11.417Z,1012.58
2022-08-28T10:26:11.438Z,1012.55
2022-08-28T10:27:11.404Z,1012.55
2022-08-28T10:28:11.400Z,1012.64
2022-08-28T10:29:11.367Z,1012.53
2022-08-28T10:30:13.518Z,1012.57
2022-08-28T10:31:11.452Z,1012.61
2022-08-28T10:32:11.328Z,1012.75
2022-08-28T10:33:11.412Z,1012.61
2022-08-28T10:34:11.312Z,1012.59
2022-08-28T10:35:11.564Z,1012.57
2022-08-28T10:36:28.742Z,1012.58
2022-08-28T10:37:12.291Z,1012.67
2022-08-28T10:38:11.347Z,1012.64
2022-08-28T10:39:11.301Z,1012.70
2022-08-28T10:40:12.286Z,1012.63
2022-08-28T10:41:11.317Z,1012.69
2022-08-28T10:42:11.203Z,1012.72
2022-08-28T10:43:11.833Z,1012.67
2022-08-28T10:44:11.214Z,1012.68
2022-08-28T10:45:11.177Z,1012.68
2022-08-28T10:46:11.619Z,1012.61
2022-08-28T10:47:11.136Z,1012.60
2022-08-28T10:48:11.181Z,1012.63
2022-08-28T10:49:11.138Z,1012.57
2022-08-28T10:50:11.108Z,1012.64
2022-08-28T10:51:11.113Z,1012.67
2022-08-28T10:52:11.076Z,1012.64
2022-08-28T10:53:11.153Z,1012.66
2022-08-28T10:54:11.198Z,1012.61
2022-08-28T10:55:11.040Z,1012.57
2022-08-28T10:56:11.578Z,1012.65
2022-08-28T10:57:11.011Z,1012.59
2022-08-28T10:58:24.302Z,1012.55
2022-08-28T10:59:12.079Z,1012.57
2022-08-28T11:00:11.144Z,1012.56
2022-08-28T11:01:11.092Z,1012.52
2022-08-28T11:02:10.988Z,1012.50
2022-08-28T11:03:27.101Z,1012.48
2022-08-28T11:04:12.044Z,1012.52
2022-08-28T11:05:10.913Z,1012.57
2022-08-28T11:06:10.912Z,1012.50
2022-08-28T11:07:10.872Z,1012.51
2022-08-28T11:08:10.996Z,1012.59
2022-08-28T11:09:10.928Z,1012.52
2022-08-28T11:10:10.893Z,1012.56
2022-08-28T11:11:10.824Z,1012.51
2022-08-28T11:12:10.951Z,1012.61
2022-08-28T11:13:10.812Z,1012.54
2022-08-28T11:14:10.884Z,1012.55
2022-08-28T11:15:10.789Z,1012.57
2022-08-28T11:16:10.786Z,1012.53
2022-08-28T11:17:10.897Z,1012.58
2022-08-28T11:18:10.767Z,1012.55
2022-08-28T11:19:10.813Z,1012.63
2022-08-28T11:20:10.903Z,1012.64
2022-08-28T11:21:11.031Z,1012.55
2022-08-28T11:22:10.674Z,1012.56
2022-08-28T11:23:10.960Z,1012.60
2022-08-28T11:24:10.959Z,1012.59
2022-08-28T11:25:10.760Z,1012.54
2022-08-28T11:26:10.628Z,1012.58
2022-08-28T11:27:10.616Z,1012.60
2022-08-28T11:28:10.632Z,1012.62
2022-08-28T11:29:10.621Z,1012.63
2022-08-28T11:30:10.574Z,1012.59
2022-08-28T11:31:10.595Z,1012.58
2022-08-28T11:32:11.619Z,1012.63
2022-08-28T11:33:10.541Z,1012.62
2022-08-28T11:34:10.634Z,1012.56
2022-08-28T11:35:10.516Z,1012.59
2022-08-28T11:36:10.490Z,1012.59
2022-08-28T11:37:10.548Z,1012.57
2022-08-28T11:38:10.504Z,1012.58
2022-08-28T11:39:10.482Z,1012.60
2022-08-28T11:40:10.492Z,1012.62
2022-08-28T11:41:10.457Z,1012.58
2022-08-28T11:42:10.472Z,1012.55
2022-08-28T11:43:10.416Z,1012.52
2022-08-28T11:44:10.497Z,1012.56
2022-08-28T11:45:10.405Z,1012.53
2022-08-28T11:46:10.493Z,1012.53
2022-08-28T11:47:10.359Z,1012.51
2022-08-28T11:48:10.345Z,1012.48
2022-08-28T11:49:10.357Z,1012.55
2022-08-28T11:50:10.339Z,1012.56
2022-08-28T11:51:10.329Z,1012.54
2022-08-28T11:52:10.374Z,1012.52
2022-08-28T11:53:10.303Z,1012.55
2022-08-28T11:54:10.300Z,1012.54
2022-08-28T11:55:10.310Z,1012.52
2022-08-28T11:56:10.246Z,1012.57
2022-08-28T11:57:10.256Z,1012.57
2022-08-28T11:58:40.402Z,1012.51
2022-08-28T11:59:40.483Z,1012.52
2022-08-28T12:00:43.307Z,1012.46
2022-08-28T12:01:40.368Z,1012.48
2022-08-28T12:02:40.536Z,1012.51
2022-08-28T12:03:40.327Z,1012.54
2022-08-28T12:04:40.731Z,1012.51
2022-08-28T12:05:40.322Z,1012.45